Time;durP1;ratioP1;P1;durP2;ratioP2;P2;SDS_P1;SDS_P2;PMS_P1;PMS_P2;Temp;Humidity;BMP_temperature;BMP_pressure;BME280_temperature;BME280_humidity;BME280_pressure;Samples;Min_cycle;Max_cycle;Signal;HPM_P1;HPM_P2
2023/11/14 00:01:50;;;;;;;9.20;2.53;;;11.70;99.90;;;;;;4909860;29;20445;-71
2023/11/14 00:04:16;;;;;;;8.43;2.90;;;11.70;99.90;;;;;;4910986;29;20186;-71
2023/11/14 00:06:41;;;;;;;12.00;3.60;;;11.70;99.90;;;;;;4906953;29;21903;-71
2023/11/14 00:09:09;;;;;;;6.80;2.57;;;11.60;99.90;;;;;;4906456;29;20206;-71
2023/11/14 00:11:36;;;;;;;12.27;3.00;;;11.50;99.90;;;;;;4912586;29;20189;-71
2023/11/14 00:14:03;;;;;;;11.50;2.57;;;11.50;99.90;;;;;;4908738;29;20434;-71
2023/11/14 00:16:28;;;;;;;3.63;3.00;;;11.50;99.90;;;;;;4929049;29;20441;-71
2023/11/14 00:18:54;;;;;;;7.70;3.77;;;11.50;99.90;;;;;;4905395;29;20469;-73
2023/11/14 00:21:20;;;;;;;7.60;4.70;;;11.40;99.90;;;;;;4918606;29;20201;-72
2023/11/14 00:23:45;;;;;;;8.23;2.70;;;11.40;99.90;;;;;;4905964;29;20197;-72
2023/11/14 00:26:11;;;;;;;9.63;3.00;;;11.50;99.90;;;;;;4906823;29;20210;-72
2023/11/14 00:28:36;;;;;;;6.90;3.40;;;11.50;99.90;;;;;;4903558;29;20201;-72
2023/11/14 00:31:02;;;;;;;6.67;2.43;;;11.50;99.90;;;;;;4904141;29;20187;-72
2023/11/14 00:33:28;;;;;;;10.23;2.17;;;11.50;99.90;;;;;;4907135;29;20564;-72
2023/11/14 00:35:54;;;;;;;7.43;2.63;;;11.60;99.90;;;;;;4904314;29;20193;-71
2023/11/14 00:38:19;;;;;;;9.93;3.07;;;11.50;99.90;;;;;;4904065;29;20212;-72
2023/11/14 00:40:45;;;;;;;5.70;2.60;;;11.50;99.90;;;;;;4901698;29;20914;-71
2023/11/14 00:43:10;;;;;;;7.77;2.97;;;11.40;99.90;;;;;;4908175;29;20182;-72
2023/11/14 00:45:36;;;;;;;10.40;2.87;;;11.40;99.90;;;;;;4906536;29;20250;-72
2023/11/14 00:48:02;;;;;;;8.10;3.00;;;11.40;99.90;;;;;;4905857;29;20595;-72
2023/11/14 00:50:27;;;;;;;5.13;2.60;;;11.30;99.90;;;;;;4902021;29;20235;-72
2023/11/14 00:52:53;;;;;;;7.17;3.20;;;11.40;99.90;;;;;;4902826;29;20318;-72
2023/11/14 00:55:18;;;;;;;6.20;3.20;;;11.30;99.90;;;;;;4900681;29;20252;-72
2023/11/14 00:57:43;;;;;;;7.23;3.07;;;11.30;99.90;;;;;;4903723;29;20276;-71
2023/11/14 01:00:12;;;;;;;8.60;2.83;;;11.30;99.90;;;;;;4907529;29;20202;-72
2023/11/14 01:02:39;;;;;;;9.57;4.00;;;11.20;99.90;;;;;;4906770;29;20323;-72
2023/11/14 01:05:08;;;;;;;7.70;2.77;;;11.20;99.90;;;;;;4903218;29;20446;-72
2023/11/14 01:07:34;;;;;;;6.87;3.00;;;11.10;99.90;;;;;;4904264;29;20552;-72
2023/11/14 01:10:00;;;;;;;5.93;2.80;;;11.10;99.90;;;;;;4906025;29;20561;-72
2023/11/14 01:12:26;;;;;;;6.73;3.53;;;11.00;99.90;;;;;;4905507;29;20538;-71
2023/11/14 01:14:52;;;;;;;7.23;2.80;;;11.00;99.90;;;;;;4905632;29;20171;-72
2023/11/14 01:17:18;;;;;;;11.73;3.00;;;11.10;99.90;;;;;;4901812;29;20447;-72
2023/11/14 01:19:44;;;;;;;9.77;3.27;;;11.10;99.90;;;;;;4907193;29;20686;-72
2023/11/14 01:22:10;;;;;;;6.63;2.93;;;11.10;99.90;;;;;;4908190;29;20693;-71
2023/11/14 01:24:36;;;;;;;5.97;2.60;;;11.20;99.90;;;;;;4900492;29;20462;-71
2023/11/14 01:27:02;;;;;;;12.73;2.83;;;11.10;99.90;;;;;;4902251;29;20681;-71
2023/11/14 01:29:28;;;;;;;7.37;2.90;;;11.10;99.90;;;;;;4901499;29;20727;-72
2023/11/14 01:31:54;;;;;;;6.50;3.17;;;11.10;99.90;;;;;;4902695;29;20548;-72
2023/11/14 01:34:20;;;;;;;11.30;3.50;;;11.20;99.90;;;;;;4902920;29;20797;-72
2023/11/14 01:36:45;;;;;;;11.27;3.00;;;11.20;99.90;;;;;;4902376;29;20197;-72
2023/11/14 01:39:11;;;;;;;4.27;2.30;;;11.20;99.90;;;;;;4903777;29;20214;-72
2023/11/14 01:41:36;;;;;;;7.80;3.17;;;11.10;99.90;;;;;;4902125;29;20730;-72
2023/11/14 01:44:02;;;;;;;6.70;2.70;;;11.10;99.90;;;;;;4902358;29;20194;-71
2023/11/14 01:46:29;;;;;;;6.50;3.20;;;11.00;99.90;;;;;;4902573;29;20545;-72
2023/11/14 01:48:55;;;;;;;3.57;2.50;;;11.00;99.90;;;;;;4902459;29;20697;-72
2023/11/14 01:51:23;;;;;;;10.80;2.73;;;11.00;99.90;;;;;;4902024;29;20449;-72
2023/11/14 01:53:50;;;;;;;8.20;3.07;;;10.90;99.90;;;;;;4902741;29;20441;-72
2023/11/14 01:56:17;;;;;;;4.00;2.63;;;10.90;99.90;;;;;;4903915;29;20452;-72
2023/11/14 01:58:44;;;;;;;8.60;3.50;;;10.90;99.90;;;;;;4903318;29;20449;-72
2023/11/14 02:01:13;;;;;;;4.77;3.07;;;10.90;99.90;;;;;;4908005;29;20450;-72
2023/11/14 02:03:39;;;;;;;4.90;2.70;;;10.90;99.90;;;;;;4921820;29;20437;-71
2023/11/14 02:06:05;;;;;;;10.53;3.37;;;10.90;99.90;;;;;;4909372;29;20516;-72
2023/11/14 02:08:31;;;;;;;11.10;2.57;;;10.80;99.90;;;;;;4912042;29;20480;-72
2023/11/14 02:10:57;;;;;;;11.23;2.57;;;10.90;99.90;;;;;;4935296;29;20527;-72
2023/11/14 02:13:23;;;;;;;7.77;2.47;;;10.80;99.90;;;;;;4925292;29;20183;-72
2023/11/14 02:15:48;;;;;;;5.80;2.40;;;10.80;99.90;;;;;;4910415;29;20442;-72
2023/11/14 02:18:18;;;;;;;7.43;3.77;;;10.70;99.90;;;;;;4909096;29;20238;-72
2023/11/14 02:20:44;;;;;;;6.57;4.17;;;10.70;99.90;;;;;;4910541;29;20197;-72
2023/11/14 02:23:11;;;;;;;5.13;2.77;;;10.70;99.90;;;;;;4916613;29;20473;-72
2023/11/14 02:25:37;;;;;;;6.00;2.70;;;10.70;99.90;;;;;;4911534;29;20438;-72
2023/11/14 02:28:03;;;;;;;8.60;3.70;;;10.60;99.90;;;;;;4927720;29;21113;-72
2023/11/14 02:30:28;;;;;;;6.33;2.93;;;10.60;99.90;;;;;;4923667;29;20216;-72
2023/11/14 02:32:54;;;;;;;8.97;3.20;;;10.60;99.90;;;;;;4922160;29;20175;-72
2023/11/14 02:35:19;;;;;;;7.57;3.10;;;10.50;99.90;;;;;;4905278;29;20319;-72
2023/11/14 02:37:46;;;;;;;7.03;3.00;;;10.50;99.90;;;;;;4906999;29;20277;-72
2023/11/14 02:40:13;;;;;;;5.00;2.57;;;10.50;99.90;;;;;;4904832;29;20213;-72
2023/11/14 02:42:41;;;;;;;7.43;3.53;;;10.50;99.90;;;;;;4906497;29;20504;-72
2023/11/14 02:45:07;;;;;;;12.00;4.80;;;10.50;99.90;;;;;;4906705;29;20586;-72
2023/11/14 02:47:33;;;;;;;8.50;2.90;;;10.50;99.90;;;;;;4905087;29;20463;-72
2023/11/14 02:50:12;;;;;;;7.73;2.53;;;10.50;99.90;;;;;;4907358;29;20484;-72
2023/11/14 02:52:38;;;;;;;7.53;2.93;;;10.50;99.90;;;;;;4904808;29;20183;-72
2023/11/14 02:55:05;;;;;;;4.10;2.60;;;10.40;99.90;;;;;;4910303;29;20445;-72
2023/11/14 02:57:31;;;;;;;6.37;3.40;;;10.40;99.90;;;;;;4905316;29;20190;-72
2023/11/14 02:59:56;;;;;;;13.60;3.60;;;10.40;99.90;;;;;;4903500;29;20472;-72
2023/11/14 03:02:22;;;;;;;6.20;2.30;;;10.40;99.90;;;;;;4904701;29;20187;-72
2023/11/14 03:04:47;;;;;;;7.87;3.00;;;10.40;99.90;;;;;;4907683;29;20638;-72
2023/11/14 03:07:13;;;;;;;9.60;3.37;;;10.30;99.90;;;;;;4905792;29;20681;-72
2023/11/14 03:09:39;;;;;;;7.97;3.13;;;10.30;99.90;;;;;;4907764;29;20628;-71
2023/11/14 03:12:05;;;;;;;4.47;2.30;;;10.30;99.90;;;;;;4902800;29;20489;-72
2023/11/14 03:14:30;;;;;;;5.60;3.27;;;10.30;99.90;;;;;;4906217;29;20182;-72
2023/11/14 03:16:56;;;;;;;7.20;3.07;;;10.30;99.90;;;;;;4903137;29;21062;-72
2023/11/14 03:19:22;;;;;;;9.90;3.27;;;10.30;99.90;;;;;;4903671;29;20206;-72
2023/11/14 03:21:48;;;;;;;8.80;3.20;;;10.20;99.90;;;;;;4909293;29;20187;-72
2023/11/14 03:24:13;;;;;;;5.70;2.03;;;10.20;99.90;;;;;;4904647;29;20187;-72
2023/11/14 03:26:39;;;;;;;7.83;3.10;;;10.20;99.90;;;;;;4903826;29;20497;-72
2023/11/14 03:29:05;;;;;;;13.13;3.30;;;10.10;99.90;;;;;;4903323;29;20211;-71
2023/11/14 03:31:30;;;;;;;10.17;3.60;;;10.10;99.90;;;;;;4904047;29;20461;-71
2023/11/14 03:33:56;;;;;;;6.40;2.67;;;10.10;99.90;;;;;;4922060;29;20568;-72
2023/11/14 03:36:22;;;;;;;4.00;2.93;;;10.10;99.90;;;;;;4905515;29;20205;-72
2023/11/14 03:38:47;;;;;;;5.33;2.83;;;10.10;99.90;;;;;;4904598;29;20265;-72
2023/11/14 03:41:13;;;;;;;12.40;3.63;;;10.10;99.90;;;;;;4903790;29;20681;-72
2023/11/14 03:43:38;;;;;;;7.17;3.90;;;10.10;99.90;;;;;;4921100;29;20551;-72
2023/11/14 03:46:04;;;;;;;8.20;3.60;;;10.10;99.90;;;;;;4907620;29;20825;-72
2023/11/14 03:48:29;;;;;;;12.03;3.80;;;10.10;99.90;;;;;;4900676;29;20182;-72
2023/11/14 03:50:55;;;;;;;8.87;3.27;;;10.00;99.90;;;;;;4904636;29;20252;-72
2023/11/14 03:53:22;;;;;;;7.30;3.97;;;10.00;99.90;;;;;;4907705;29;20659;-72
2023/11/14 03:55:48;;;;;;;5.63;2.07;;;10.00;99.90;;;;;;4903443;29;20846;-72
2023/11/14 03:58:13;;;;;;;10.43;2.77;;;10.00;99.90;;;;;;4904296;29;20576;-72
2023/11/14 04:00:39;;;;;;;4.67;2.73;;;10.00;99.90;;;;;;4902874;29;20556;-72
2023/11/14 04:03:05;;;;;;;14.07;3.23;;;10.10;99.90;;;;;;4903755;29;20671;-72
2023/11/14 04:05:30;;;;;;;3.90;2.30;;;10.10;99.90;;;;;;4904799;29;20312;-72
2023/11/14 04:07:56;;;;;;;10.10;3.53;;;10.10;99.90;;;;;;4905798;29;20240;-72
2023/11/14 04:10:22;;;;;;;7.57;2.87;;;10.10;99.90;;;;;;4903300;29;20202;-72
2023/11/14 04:12:48;;;;;;;7.60;2.70;;;10.10;99.90;;;;;;4904384;29;20273;-72
2023/11/14 04:15:14;;;;;;;5.50;3.50;;;10.10;99.90;;;;;;4906152;29;20525;-72
2023/11/14 04:17:39;;;;;;;9.90;2.77;;;10.10;99.90;;;;;;4907758;29;20453;-71
2023/11/14 04:20:07;;;;;;;6.50;3.10;;;10.10;99.90;;;;;;4905051;29;20352;-72
2023/11/14 04:22:32;;;;;;;9.30;3.13;;;10.10;99.90;;;;;;4924169;29;20196;-72
2023/11/14 04:24:58;;;;;;;6.87;2.57;;;10.00;99.90;;;;;;4922141;29;20438;-72
2023/11/14 04:27:24;;;;;;;6.43;3.10;;;10.00;99.90;;;;;;4921402;29;20210;-72
2023/11/14 04:29:50;;;;;;;8.87;4.17;;;10.00;99.90;;;;;;4901789;29;20241;-72
2023/11/14 04:32:15;;;;;;;8.20;2.80;;;10.10;99.90;;;;;;4909357;29;20185;-72
2023/11/14 04:34:43;;;;;;;5.70;2.87;;;10.00;99.90;;;;;;4922533;29;20191;-72
2023/11/14 04:37:10;;;;;;;6.13;2.70;;;10.00;99.90;;;;;;4920408;29;20261;-72
2023/11/14 04:39:36;;;;;;;8.40;3.13;;;10.00;99.90;;;;;;4911477;29;20461;-72
2023/11/14 04:42:02;;;;;;;5.20;2.90;;;10.00;99.90;;;;;;4924670;29;20466;-72
2023/11/14 04:44:27;;;;;;;4.53;3.00;;;10.00;99.90;;;;;;4910732;29;20529;-72
2023/11/14 04:46:53;;;;;;;3.53;2.47;;;10.00;99.90;;;;;;4925230;29;20209;-72
2023/11/14 04:49:18;;;;;;;6.83;2.90;;;10.00;99.90;;;;;;4914269;29;20205;-72
2023/11/14 04:51:44;;;;;;;5.20;3.23;;;10.00;99.90;;;;;;4906764;29;20198;-72
2023/11/14 04:54:10;;;;;;;5.20;2.57;;;10.00;99.90;;;;;;4918275;29;20254;-72
2023/11/14 04:56:36;;;;;;;6.13;3.50;;;10.00;99.90;;;;;;4918963;29;20267;-72
2023/11/14 04:59:02;;;;;;;8.93;3.03;;;10.00;99.90;;;;;;4909504;29;20521;-72
2023/11/14 05:01:28;;;;;;;7.33;3.30;;;10.00;99.90;;;;;;4912358;29;20237;-72
2023/11/14 05:03:53;;;;;;;4.80;2.37;;;9.90;99.90;;;;;;4903590;29;20478;-72
2023/11/14 05:06:19;;;;;;;3.67;2.70;;;9.90;99.90;;;;;;4921722;29;20244;-72
2023/11/14 05:08:44;;;;;;;5.97;2.50;;;9.90;99.90;;;;;;4930321;29;20248;-72
2023/11/14 05:11:10;;;;;;;4.90;2.70;;;10.00;99.90;;;;;;4916063;29;20193;-72
2023/11/14 05:13:36;;;;;;;2.90;2.33;;;10.00;99.90;;;;;;4912562;29;20589;-72
2023/11/14 05:16:02;;;;;;;5.63;2.20;;;10.00;99.90;;;;;;4919879;29;20190;-72
2023/11/14 05:18:27;;;;;;;4.23;2.17;;;10.00;99.90;;;;;;4914340;29;20549;-72
2023/11/14 05:20:53;;;;;;;3.53;2.47;;;10.00;99.90;;;;;;4915114;29;20616;-72
2023/11/14 05:23:18;;;;;;;6.73;2.33;;;10.10;99.90;;;;;;4923157;29;20198;-72
2023/11/14 05:25:44;;;;;;;7.23;2.17;;;10.00;99.90;;;;;;4914207;29;20719;-71
2023/11/14 05:28:09;;;;;;;11.20;4.20;;;10.00;99.90;;;;;;4914821;29;20213;-71
2023/11/14 05:30:36;;;;;;;3.80;2.73;;;10.00;99.90;;;;;;4914139;29;20265;-72
2023/11/14 05:33:01;;;;;;;7.47;2.93;;;10.10;99.90;;;;;;4907115;29;20191;-72
2023/11/14 05:35:28;;;;;;;4.90;2.17;;;10.10;99.90;;;;;;4911476;29;20438;-72
2023/11/14 05:37:53;;;;;;;6.57;3.77;;;10.10;99.90;;;;;;4920390;29;20653;-72
2023/11/14 05:40:19;;;;;;;8.13;2.80;;;10.10;99.90;;;;;;4926535;29;20469;-72
2023/11/14 05:42:45;;;;;;;5.77;2.90;;;10.10;99.90;;;;;;4898948;29;20544;-72
2023/11/14 05:45:11;;;;;;;6.60;2.87;;;10.10;99.90;;;;;;4908056;29;20442;-72
2023/11/14 05:47:36;;;;;;;6.57;2.60;;;10.10;99.90;;;;;;4909672;29;20211;-72
2023/11/14 05:50:04;;;;;;;4.83;2.10;;;10.10;99.90;;;;;;4906957;29;20206;-72
2023/11/14 05:52:30;;;;;;;4.63;2.17;;;10.10;99.90;;;;;;4916331;29;20719;-72
2023/11/14 05:54:56;;;;;;;8.13;2.80;;;10.10;99.90;;;;;;4905377;29;20436;-72
2023/11/14 05:57:21;;;;;;;5.97;2.27;;;10.10;99.90;;;;;;4907593;29;20439;-72
2023/11/14 05:59:49;;;;;;;5.50;2.00;;;10.10;99.90;;;;;;4920100;29;20678;-72
2023/11/14 06:02:15;;;;;;;3.67;2.50;;;10.10;99.90;;;;;;4908715;29;20182;-72
2023/11/14 06:04:41;;;;;;;7.07;2.23;;;10.10;99.90;;;;;;4906532;29;20439;-72
2023/11/14 06:07:07;;;;;;;5.43;2.20;;;10.10;99.90;;;;;;4907753;29;20218;-72
2023/11/14 06:09:32;;;;;;;5.07;2.00;;;10.10;99.90;;;;;;4907429;29;20190;-72
2023/11/14 06:11:58;;;;;;;7.47;2.43;;;10.00;99.90;;;;;;4909594;29;20650;-72
2023/11/14 06:14:23;;;;;;;6.20;1.90;;;10.00;99.90;;;;;;4909388;29;20382;-72
2023/11/14 06:16:49;;;;;;;5.60;2.07;;;10.00;99.90;;;;;;4910464;29;20189;-72
2023/11/14 06:19:15;;;;;;;2.93;2.33;;;10.00;99.90;;;;;;4934047;29;20573;-72
2023/11/14 06:21:42;;;;;;;4.20;2.30;;;10.00;99.90;;;;;;4912825;29;20189;-72
2023/11/14 06:24:08;;;;;;;6.93;2.70;;;10.00;99.90;;;;;;4910669;29;20972;-72
2023/11/14 06:26:34;;;;;;;3.10;2.43;;;10.00;99.90;;;;;;4917565;29;20465;-72
2023/11/14 06:28:59;;;;;;;5.73;3.27;;;9.90;99.90;;;;;;4908466;29;20296;-72
2023/11/14 06:31:25;;;;;;;9.43;2.93;;;9.90;99.90;;;;;;4908379;29;20265;-72
2023/11/14 06:33:51;;;;;;;2.80;2.17;;;9.80;99.90;;;;;;4914597;29;20182;-72
2023/11/14 06:36:16;;;;;;;5.10;2.63;;;9.80;99.90;;;;;;4918209;29;20458;-72
2023/11/14 06:38:42;;;;;;;7.33;4.57;;;9.80;99.90;;;;;;4912672;29;20266;-72
2023/11/14 06:41:10;;;;;;;3.27;2.40;;;9.80;99.90;;;;;;4910228;29;20736;-72
2023/11/14 06:43:35;;;;;;;10.43;2.50;;;9.80;99.90;;;;;;4918293;29;20257;-72
2023/11/14 06:46:01;;;;;;;8.30;2.50;;;9.70;99.90;;;;;;4914943;29;20931;-72
2023/11/14 06:48:26;;;;;;;6.17;2.40;;;9.70;99.90;;;;;;4908483;29;20183;-72
2023/11/14 06:50:52;;;;;;;5.40;2.93;;;9.80;99.90;;;;;;4907017;29;20662;-72
2023/11/14 06:53:19;;;;;;;4.47;2.20;;;9.80;99.90;;;;;;4899216;29;20183;-72
2023/11/14 06:55:44;;;;;;;2.53;1.60;;;9.80;99.90;;;;;;4898470;29;20174;-72
2023/11/14 06:58:10;;;;;;;4.37;2.03;;;9.80;99.90;;;;;;4899820;29;20978;-72
2023/11/14 07:00:36;;;;;;;2.50;2.10;;;9.90;99.90;;;;;;4928260;29;20212;-72
2023/11/14 07:03:03;;;;;;;4.40;1.90;;;9.90;99.90;;;;;;4920648;29;20976;-72
2023/11/14 07:05:30;;;;;;;2.53;2.20;;;9.90;99.90;;;;;;4923083;29;20442;-72
2023/11/14 07:07:55;;;;;;;3.43;2.17;;;9.90;99.90;;;;;;4905789;29;21176;-72
2023/11/14 07:10:21;;;;;;;4.23;2.00;;;10.00;99.90;;;;;;4905288;29;20463;-72
2023/11/14 07:12:46;;;;;;;4.73;2.23;;;10.10;99.90;;;;;;4908832;29;20190;-72
2023/11/14 07:15:12;;;;;;;4.43;1.87;;;10.10;99.90;;;;;;4908155;29;20294;-72
2023/11/14 07:17:39;;;;;;;4.83;2.40;;;10.10;99.90;;;;;;4911893;29;20183;-72
2023/11/14 07:20:10;;;;;;;3.60;1.93;;;10.10;99.90;;;;;;4915198;29;20214;-72
2023/11/14 07:22:40;;;;;;;3.90;1.70;;;10.20;99.90;;;;;;4909722;29;20439;-72
2023/11/14 07:25:07;;;;;;;3.10;1.50;;;10.20;99.90;;;;;;4933144;29;20432;-72
2023/11/14 07:27:32;;;;;;;3.60;1.67;;;10.20;99.90;;;;;;4906416;29;20485;-72
2023/11/14 07:29:58;;;;;;;2.83;1.30;;;10.20;99.90;;;;;;4904661;29;20463;-72
2023/11/14 07:32:23;;;;;;;5.27;1.93;;;10.20;99.90;;;;;;4914080;29;20671;-72
2023/11/14 07:34:49;;;;;;;2.23;1.60;;;10.20;99.90;;;;;;4918173;29;20200;-73
2023/11/14 07:37:14;;;;;;;5.87;1.60;;;10.30;99.90;;;;;;4916846;29;20641;-72
2023/11/14 07:39:40;;;;;;;1.60;1.50;;;10.50;99.90;;;;;;4937300;29;20206;-72
2023/11/14 07:42:05;;;;;;;3.40;1.50;;;10.70;99.90;;;;;;4902075;29;20317;-72
2023/11/14 07:44:31;;;;;;;1.90;1.50;;;11.20;99.90;;;;;;4917107;29;20189;-72
2023/11/14 07:46:57;;;;;;;6.17;3.60;;;11.40;99.90;;;;;;4924997;29;20209;-72
2023/11/14 07:49:22;;;;;;;2.80;1.50;;;11.30;99.90;;;;;;4904247;29;20194;-73
2023/11/14 07:51:48;;;;;;;5.87;2.10;;;11.20;99.90;;;;;;4921612;29;20253;-72
2023/11/14 07:54:14;;;;;;;3.93;2.00;;;11.00;99.90;;;;;;4908274;29;20185;-72
2023/11/14 07:56:42;;;;;;;2.53;1.53;;;10.90;99.90;;;;;;4916337;29;20186;-72
2023/11/14 07:59:08;;;;;;;6.30;1.50;;;10.90;99.90;;;;;;4904914;29;20217;-72
2023/11/14 08:01:34;;;;;;;3.03;1.30;;;10.80;99.90;;;;;;4907042;29;20859;-72
2023/11/14 08:03:59;;;;;;;1.90;1.30;;;10.70;99.90;;;;;;4904900;29;20460;-72
2023/11/14 08:06:25;;;;;;;2.60;1.60;;;10.70;99.90;;;;;;4905765;29;20203;-72
2023/11/14 08:08:51;;;;;;;3.77;2.03;;;10.70;99.90;;;;;;4903089;29;20203;-72
2023/11/14 08:11:18;;;;;;;5.40;1.80;;;10.70;99.90;;;;;;4904530;29;20491;-71
2023/11/14 08:13:44;;;;;;;5.57;1.80;;;10.80;99.90;;;;;;4897546;29;20181;-72
2023/11/14 08:16:09;;;;;;;3.90;1.80;;;10.90;99.90;;;;;;4907543;29;20441;-72
2023/11/14 08:18:35;;;;;;;5.00;1.80;;;10.90;99.90;;;;;;4915817;29;20261;-72
2023/11/14 08:21:00;;;;;;;1.93;1.50;;;10.90;99.90;;;;;;4916679;29;20262;-72
2023/11/14 08:23:26;;;;;;;2.67;1.30;;;10.90;99.90;;;;;;4916340;29;20181;-72
2023/11/14 08:25:51;;;;;;;6.10;2.00;;;11.00;99.90;;;;;;4916162;29;20174;-72
2023/11/14 08:28:17;;;;;;;4.70;2.10;;;11.10;99.90;;;;;;4930248;29;20209;-72
2023/11/14 08:30:42;;;;;;;2.30;1.20;;;11.10;99.90;;;;;;4905409;29;20206;-72
2023/11/14 08:33:10;;;;;;;3.90;1.90;;;11.10;99.90;;;;;;4897021;29;20203;-72
2023/11/14 08:35:36;;;;;;;6.13;1.70;;;11.10;99.90;;;;;;4902423;29;20175;-72
2023/11/14 08:38:02;;;;;;;1.70;1.57;;;11.10;99.90;;;;;;4908717;29;20458;-72
2023/11/14 08:40:28;;;;;;;4.30;2.00;;;11.00;99.90;;;;;;4915927;29;20485;-72
2023/11/14 08:42:54;;;;;;;5.70;3.90;;;10.90;99.90;;;;;;4915981;29;20426;-72
2023/11/14 08:45:20;;;;;;;3.80;1.93;;;10.90;99.90;;;;;;4904062;29;20816;-72
2023/11/14 08:47:46;;;;;;;2.40;1.70;;;10.90;99.90;;;;;;4900415;29;20201;-72
2023/11/14 08:50:12;;;;;;;2.47;1.17;;;10.90;99.90;;;;;;4896725;29;20194;-72
2023/11/14 08:52:39;;;;;;;1.60;1.50;;;10.80;99.90;;;;;;4896955;29;20253;-72
2023/11/14 08:55:06;;;;;;;3.53;1.73;;;10.80;99.90;;;;;;4896854;29;20419;-72
2023/11/14 08:57:31;;;;;;;2.50;1.50;;;10.80;99.90;;;;;;4896666;29;20953;-72
2023/11/14 08:59:57;;;;;;;2.93;1.30;;;10.80;99.90;;;;;;4913556;29;20454;-72
2023/11/14 09:02:24;;;;;;;1.97;1.70;;;10.80;99.90;;;;;;4915800;29;20185;-72
2023/11/14 09:04:49;;;;;;;2.80;1.50;;;10.70;99.90;;;;;;4930025;29;20178;-72
2023/11/14 09:07:15;;;;;;;1.83;1.43;;;10.80;99.90;;;;;;4915326;29;20513;-72
2023/11/14 09:09:44;;;;;;;3.53;1.20;;;10.90;99.90;;;;;;4915515;29;20714;-72
2023/11/14 09:12:10;;;;;;;3.23;2.20;;;10.80;99.90;;;;;;4915706;29;20192;-72
2023/11/14 09:14:36;;;;;;;3.60;1.23;;;10.80;99.90;;;;;;4897563;29;20830;-72
2023/11/14 09:17:03;;;;;;;1.43;1.00;;;10.80;99.90;;;;;;4896403;29;20427;-71
2023/11/14 09:19:31;;;;;;;2.10;1.57;;;10.80;99.90;;;;;;4896237;29;20534;-72
2023/11/14 09:22:01;;;;;;;3.53;1.10;;;10.80;99.90;;;;;;4896693;29;20426;-72
2023/11/14 09:24:26;;;;;;;4.40;1.70;;;10.80;99.90;;;;;;4896649;29;20962;-72
2023/11/14 09:26:52;;;;;;;1.50;1.37;;;10.80;99.90;;;;;;4896073;29;20554;-72
2023/11/14 09:29:17;;;;;;;3.70;1.30;;;10.80;99.90;;;;;;4909172;29;20242;-72
2023/11/14 09:31:43;;;;;;;3.97;1.47;;;10.90;99.90;;;;;;4914339;29;20694;-72
2023/11/14 09:34:09;;;;;;;2.90;1.50;;;10.90;99.90;;;;;;4929997;29;20221;-72
2023/11/14 09:36:34;;;;;;;4.87;1.50;;;10.90;99.90;;;;;;4915238;29;20237;-72
2023/11/14 09:39:00;;;;;;;2.83;1.30;;;11.00;99.90;;;;;;4915281;29;20446;-72
2023/11/14 09:41:25;;;;;;;2.40;1.00;;;10.90;99.90;;;;;;4915422;29;20178;-72
2023/11/14 09:43:51;;;;;;;5.50;1.43;;;11.00;99.90;;;;;;4902607;29;20462;-72
2023/11/14 09:46:17;;;;;;;4.20;1.97;;;11.00;99.90;;;;;;4896206;29;20179;-72
2023/11/14 09:48:43;;;;;;;2.37;1.43;;;10.90;99.90;;;;;;4910560;29;20277;-72
2023/11/14 09:51:09;;;;;;;3.97;1.80;;;11.00;99.90;;;;;;4896426;29;20325;-72
2023/11/14 09:53:35;;;;;;;2.23;1.23;;;11.00;99.90;;;;;;4896503;29;20270;-72
2023/11/14 09:56:03;;;;;;;3.43;1.40;;;11.00;99.90;;;;;;4896329;29;20455;-72
2023/11/14 09:58:29;;;;;;;3.53;1.30;;;11.00;99.90;;;;;;4896283;29;20435;-72
2023/11/14 10:00:56;;;;;;;2.10;1.70;;;11.00;99.90;;;;;;4896199;29;20426;-72
2023/11/14 10:03:22;;;;;;;3.90;1.60;;;11.00;99.90;;;;;;4896422;29;20182;-72
2023/11/14 10:05:48;;;;;;;5.47;1.57;;;11.00;99.90;;;;;;4896308;29;20431;-72
2023/11/14 10:08:15;;;;;;;2.10;1.10;;;11.00;99.90;;;;;;4895991;29;20262;-72
2023/11/14 10:11:04;;;;;;;5.73;1.30;;;11.00;99.90;;;;;;4896100;29;20451;-71
2023/11/14 10:13:30;;;;;;;2.60;1.57;;;11.00;99.90;;;;;;4907864;29;20430;-72
2023/11/14 10:16:18;;;;;;;2.37;1.37;;;11.00;99.90;;;;;;4914994;29;20426;-72
2023/11/14 10:18:45;;;;;;;4.40;1.23;;;11.00;99.90;;;;;;4914565;29;20560;-72
2023/11/14 10:21:29;;;;;;;1.83;1.20;;;11.00;99.90;;;;;;4915007;29;20422;-71
2023/11/14 10:23:57;;;;;;;1.87;1.47;;;10.90;99.90;;;;;;4914840;29;20513;-71
2023/11/14 10:26:23;;;;;;;2.67;1.17;;;11.00;99.90;;;;;;4914678;29;20497;-71
2023/11/14 10:29:00;;;;;;;3.33;1.37;;;11.00;99.90;;;;;;4902235;29;20550;-71
2023/11/14 10:31:35;;;;;;;2.10;1.10;;;11.00;99.90;;;;;;4898617;29;20419;-72
2023/11/14 10:34:02;;;;;;;4.20;1.57;;;11.10;99.90;;;;;;4899351;29;20430;-72
2023/11/14 10:36:28;;;;;;;4.60;1.60;;;11.10;99.90;;;;;;4898829;29;20438;-72
2023/11/14 10:39:03;;;;;;;5.73;1.80;;;11.10;99.90;;;;;;4899236;29;20447;-72
2023/11/14 10:41:29;;;;;;;3.00;1.07;;;11.00;99.90;;;;;;4899313;29;20178;-71
2023/11/14 10:43:54;;;;;;;1.50;1.37;;;11.00;99.90;;;;;;4915920;29;20930;-76
2023/11/14 10:46:20;;;;;;;2.60;1.87;;;11.10;99.90;;;;;;4917885;29;20635;-75
2023/11/14 10:48:45;;;;;;;2.57;1.00;;;11.10;99.90;;;;;;4917628;29;20663;-76
2023/11/14 10:51:12;;;;;;;5.40;1.20;;;11.10;99.90;;;;;;4917854;29;20547;-76
2023/11/14 10:53:39;;;;;;;2.07;1.27;;;11.20;99.90;;;;;;4917996;29;20587;-72
2023/11/14 10:56:06;;;;;;;2.20;1.60;;;11.20;99.90;;;;;;4915846;29;20965;-75
2023/11/14 10:58:34;;;;;;;1.43;1.17;;;11.20;99.90;;;;;;4914713;29;20482;-75
2023/11/14 11:01:02;;;;;;;4.30;1.40;;;11.20;99.90;;;;;;4902493;29;20805;-75
2023/11/14 11:03:28;;;;;;;4.40;1.80;;;11.20;99.90;;;;;;4898975;29;20435;-75
2023/11/14 11:05:54;;;;;;;2.20;2.00;;;11.30;99.90;;;;;;4897525;29;20852;-75
2023/11/14 11:08:20;;;;;;;5.50;2.23;;;11.30;99.90;;;;;;4898480;29;20207;-75
2023/11/14 11:10:48;;;;;;;4.90;1.70;;;11.40;99.90;;;;;;4898710;29;20191;-75
2023/11/14 11:13:20;;;;;;;3.10;1.83;;;11.40;99.90;;;;;;4911920;29;20441;-75
2023/11/14 11:15:48;;;;;;;3.57;2.50;;;11.40;99.90;;;;;;4917621;29;20861;-75
2023/11/14 11:18:14;;;;;;;1.20;1.10;;;11.50;99.90;;;;;;4917059;29;20925;-75
2023/11/14 11:20:41;;;;;;;2.20;1.63;;;11.50;99.90;;;;;;4917730;29;20450;-75
2023/11/14 11:23:13;;;;;;;2.00;1.53;;;11.50;99.90;;;;;;4918703;29;20434;-75
2023/11/14 11:25:43;;;;;;;3.80;2.20;;;11.60;99.90;;;;;;4918418;29;20427;-77
2023/11/14 11:28:20;;;;;;;2.80;2.07;;;11.80;99.90;;;;;;4905788;29;20467;-77
2023/11/14 11:31:04;;;;;;;6.27;3.10;;;11.90;99.90;;;;;;4899548;29;20925;-77
2023/11/14 11:33:37;;;;;;;5.97;2.60;;;12.00;99.90;;;;;;4900190;29;20522;-73
2023/11/14 11:36:24;;;;;;;3.23;1.60;;;12.10;99.90;;;;;;4898218;29;20428;-73
2023/11/14 11:39:04;;;;;;;2.60;1.50;;;12.10;99.90;;;;;;4914774;29;20541;-73
2023/11/14 11:41:35;;;;;;;2.63;1.67;;;12.00;99.90;;;;;;4917038;29;20481;-72
2023/11/14 11:44:03;;;;;;;5.70;1.90;;;11.80;99.90;;;;;;4916863;29;20434;-72
2023/11/14 11:46:35;;;;;;;3.63;2.37;;;11.80;99.90;;;;;;4909681;29;20459;-70
2023/11/14 11:49:10;;;;;;;3.30;1.87;;;11.70;99.90;;;;;;4898080;29;20479;-69
2023/11/14 11:51:49;;;;;;;4.83;2.03;;;11.70;99.90;;;;;;4900732;29;20422;-69
2023/11/14 11:54:26;;;;;;;2.60;1.33;;;11.60;99.90;;;;;;4917036;29;20505;-69
2023/11/14 11:57:07;;;;;;;2.23;1.37;;;11.60;99.90;;;;;;4916528;29;20422;-69
2023/11/14 11:59:44;;;;;;;5.80;1.50;;;11.60;99.90;;;;;;4898628;29;20451;-69
2023/11/14 12:02:11;;;;;;;3.20;1.77;;;11.70;99.90;;;;;;4906202;29;20782;-71
2023/11/14 12:04:37;;;;;;;3.73;2.23;;;11.60;99.90;;;;;;4942354;29;20458;-72
2023/11/14 12:07:03;;;;;;;6.60;3.93;;;11.70;99.90;;;;;;4905857;29;20463;-72
2023/11/14 12:09:31;;;;;;;3.70;1.60;;;11.70;99.90;;;;;;4897499;29;20435;-72
2023/11/14 12:11:57;;;;;;;4.20;2.30;;;11.80;99.90;;;;;;4897862;29;20974;-71
2023/11/14 12:14:22;;;;;;;3.20;1.33;;;11.70;99.90;;;;;;4911915;29;20434;-72
2023/11/14 12:16:49;;;;;;;3.47;1.50;;;11.70;99.90;;;;;;4915759;29;20513;-72
2023/11/14 12:19:15;;;;;;;2.70;1.70;;;11.70;99.90;;;;;;4916145;29;20199;-72
2023/11/14 12:21:40;;;;;;;4.90;1.60;;;11.80;99.90;;;;;;4916305;29;20576;-72
2023/11/14 12:24:07;;;;;;;3.80;1.70;;;11.80;99.90;;;;;;4914624;29;20968;-72
2023/11/14 12:26:33;;;;;;;3.00;1.50;;;11.80;99.90;;;;;;4908822;29;20883;-72
2023/11/14 12:29:07;;;;;;;3.37;1.90;;;11.80;99.90;;;;;;4906494;29;20474;-72
2023/11/14 12:31:33;;;;;;;4.60;1.90;;;11.80;99.90;;;;;;4926282;29;20820;-71
2023/11/14 12:34:00;;;;;;;2.70;1.67;;;11.80;99.90;;;;;;4935000;29;20426;-71
2023/11/14 12:36:27;;;;;;;4.00;1.93;;;11.80;99.90;;;;;;4934669;29;20425;-72
2023/11/14 12:38:53;;;;;;;4.10;1.53;;;11.80;99.90;;;;;;4934993;29;20439;-72
2023/11/14 12:41:25;;;;;;;2.30;1.33;;;11.80;99.90;;;;;;4924096;29;20465;-72
2023/11/14 12:43:52;;;;;;;1.67;1.30;;;11.80;99.90;;;;;;4909107;29;20431;-72